sensor_id;sensor_type;location;lat;lon;timestamp;pressure;altitude;pressure_sealevel;temperature;humidity
55801;BME280;41730;51.960;20.158;2023-02-13T00:02:31;101954.00;;;5.54;76.38
55801;BME280;41730;51.960;20.158;2023-02-13T00:05:03;101955.55;;;5.65;76.17
55801;BME280;41730;51.960;20.158;2023-02-13T00:07:34;101957.97;;;5.65;76.08
55801;BME280;41730;51.960;20.158;2023-02-13T00:10:07;101954.23;;;5.68;76.03
55801;BME280;41730;51.960;20.158;2023-02-13T00:12:38;101953.67;;;5.54;76.50
55801;BME280;41730;51.960;20.158;2023-02-13T00:15:10;101953.83;;;5.50;76.70
55801;BME280;41730;51.960;20.158;2023-02-13T00:17:41;101958.08;;;5.42;77.11
55801;BME280;41730;51.960;20.158;2023-02-13T00:20:13;101958.45;;;5.46;77.04
55801;BME280;41730;51.960;20.158;2023-02-13T00:22:45;101960.00;;;5.62;76.81
55801;BME280;41730;51.960;20.158;2023-02-13T00:25:16;101960.48;;;5.58;76.63
55801;BME280;41730;51.960;20.158;2023-02-13T00:27:48;101959.17;;;5.56;77.12
55801;BME280;41730;51.960;20.158;2023-02-13T00:30:21;101950.98;;;5.77;76.49
55801;BME280;41730;51.960;20.158;2023-02-13T00:32:53;101950.84;;;5.75;76.56
55801;BME280;41730;51.960;20.158;2023-02-13T00:35:24;101930.89;;;5.69;76.66
55801;BME280;41730;51.960;20.158;2023-02-13T00:37:56;101930.60;;;5.57;77.13
55801;BME280;41730;51.960;20.158;2023-02-13T00:40:27;101926.16;;;5.54;77.40
55801;BME280;41730;51.960;20.158;2023-02-13T00:42:59;101924.00;;;5.61;77.21
55801;BME280;41730;51.960;20.158;2023-02-13T00:45:31;101917.78;;;5.60;77.15
55801;BME280;41730;51.960;20.158;2023-02-13T00:48:02;101916.45;;;5.54;77.40
55801;BME280;41730;51.960;20.158;2023-02-13T00:50:34;101912.80;;;5.53;77.56
55801;BME280;41730;51.960;20.158;2023-02-13T00:53:06;101908.27;;;5.63;77.34
55801;BME280;41730;51.960;20.158;2023-02-13T00:55:37;101905.61;;;5.70;77.01
55801;BME280;41730;51.960;20.158;2023-02-13T00:58:09;101909.52;;;5.68;77.07
55801;BME280;41730;51.960;20.158;2023-02-13T01:00:41;101915.23;;;5.73;77.07
55801;BME280;41730;51.960;20.158;2023-02-13T01:03:13;101915.63;;;5.72;77.01
55801;BME280;41730;51.960;20.158;2023-02-13T01:05:45;101916.34;;;5.67;77.16
55801;BME280;41730;51.960;20.158;2023-02-13T01:08:21;101918.47;;;5.65;77.60
55801;BME280;41730;51.960;20.158;2023-02-13T01:10:53;101919.41;;;5.79;77.17
55801;BME280;41730;51.960;20.158;2023-02-13T01:13:25;101921.65;;;5.84;76.98
55801;BME280;41730;51.960;20.158;2023-02-13T01:15:57;101925.95;;;5.86;76.77
55801;BME280;41730;51.960;20.158;2023-02-13T01:18:28;101921.62;;;5.75;77.07
55801;BME280;41730;51.960;20.158;2023-02-13T01:21:02;101920.88;;;5.66;77.44
55801;BME280;41730;51.960;20.158;2023-02-13T01:23:35;101921.23;;;5.81;77.18
55801;BME280;41730;51.960;20.158;2023-02-13T01:26:10;101919.59;;;5.94;76.77
55801;BME280;41730;51.960;20.158;2023-02-13T01:28:42;101921.33;;;5.93;76.58
55801;BME280;41730;51.960;20.158;2023-02-13T01:31:14;101917.85;;;5.83;76.88
55801;BME280;41730;51.960;20.158;2023-02-13T01:33:46;101915.02;;;5.69;77.37
55801;BME280;41730;51.960;20.158;2023-02-13T01:36:18;101917.28;;;5.65;77.70
55801;BME280;41730;51.960;20.158;2023-02-13T01:38:53;101917.30;;;5.69;77.90
55801;BME280;41730;51.960;20.158;2023-02-13T01:41:26;101911.95;;;5.88;77.17
55801;BME280;41730;51.960;20.158;2023-02-13T01:43:59;101908.94;;;5.89;76.98
55801;BME280;41730;51.960;20.158;2023-02-13T01:46:34;101906.89;;;5.88;76.93
55801;BME280;41730;51.960;20.158;2023-02-13T01:49:11;101906.84;;;6.00;76.98
55801;BME280;41730;51.960;20.158;2023-02-13T01:51:45;101907.19;;;6.14;76.21
55801;BME280;41730;51.960;20.158;2023-02-13T01:54:20;101910.23;;;6.07;76.49
55801;BME280;41730;51.960;20.158;2023-02-13T01:56:58;101907.95;;;6.08;76.68
55801;BME280;41730;51.960;20.158;2023-02-13T01:59:36;101904.89;;;6.24;76.07
55801;BME280;41730;51.960;20.158;2023-02-13T02:02:08;101905.94;;;6.15;76.12
55801;BME280;41730;51.960;20.158;2023-02-13T02:04:41;101901.23;;;6.10;76.42
55801;BME280;41730;51.960;20.158;2023-02-13T02:07:16;101907.20;;;6.13;76.31
55801;BME280;41730;51.960;20.158;2023-02-13T02:09:50;101900.48;;;6.30;75.71
55801;BME280;41730;51.960;20.158;2023-02-13T02:12:26;101904.55;;;6.29;75.66
55801;BME280;41730;51.960;20.158;2023-02-13T02:15:00;101904.09;;;6.23;76.01
55801;BME280;41730;51.960;20.158;2023-02-13T02:17:33;101899.08;;;6.07;76.32
55801;BME280;41730;51.960;20.158;2023-02-13T02:20:16;101898.64;;;6.05;76.37
55801;BME280;41730;51.960;20.158;2023-02-13T02:26:34;101902.02;;;6.22;75.96
55801;BME280;41730;51.960;20.158;2023-02-13T02:29:31;101902.89;;;6.12;76.25
55801;BME280;41730;51.960;20.158;2023-02-13T02:32:28;101907.52;;;6.10;76.30
55801;BME280;41730;51.960;20.158;2023-02-13T02:35:11;101908.40;;;6.00;76.58
55801;BME280;41730;51.960;20.158;2023-02-13T02:37:58;101905.77;;;6.05;76.64
55801;BME280;41730;51.960;20.158;2023-02-13T02:40:40;101906.85;;;6.23;75.97
55801;BME280;41730;51.960;20.158;2023-02-13T02:43:27;101908.17;;;6.15;76.08
55801;BME280;41730;51.960;20.158;2023-02-13T02:46:05;101913.38;;;6.07;76.38
55801;BME280;41730;51.960;20.158;2023-02-13T02:48:44;101913.42;;;6.01;76.66
55801;BME280;41730;51.960;20.158;2023-02-13T02:51:43;101913.71;;;6.12;76.39
55801;BME280;41730;51.960;20.158;2023-02-13T02:54:24;101915.10;;;6.26;76.03
55801;BME280;41730;51.960;20.158;2023-02-13T02:57:17;101914.73;;;6.45;75.36
55801;BME280;41730;51.960;20.158;2023-02-13T02:59:53;101912.96;;;6.32;75.25
55801;BME280;41730;51.960;20.158;2023-02-13T03:02:44;101916.48;;;6.12;76.18
55801;BME280;41730;51.960;20.158;2023-02-13T03:05:35;101918.19;;;6.23;75.95
55801;BME280;41730;51.960;20.158;2023-02-13T03:08:28;101915.04;;;6.14;76.15
55801;BME280;41730;51.960;20.158;2023-02-13T03:11:14;101911.69;;;6.15;75.90
55801;BME280;41730;51.960;20.158;2023-02-13T03:14:04;101914.66;;;6.14;76.10
55801;BME280;41730;51.960;20.158;2023-02-13T03:16:39;101917.79;;;6.05;76.17
55801;BME280;41730;51.960;20.158;2023-02-13T03:19:37;101915.24;;;6.03;76.41
55801;BME280;41730;51.960;20.158;2023-02-13T03:22:43;101920.79;;;5.99;76.64
55801;BME280;41730;51.960;20.158;2023-02-13T03:25:24;101919.48;;;6.11;76.38
55801;BME280;41730;51.960;20.158;2023-02-13T03:28:08;101923.46;;;6.12;76.17
55801;BME280;41730;51.960;20.158;2023-02-13T03:31:03;101923.65;;;6.02;76.56
55801;BME280;41730;51.960;20.158;2023-02-13T03:33:48;101925.23;;;6.21;76.23
55801;BME280;41730;51.960;20.158;2023-02-13T03:36:32;101922.17;;;6.28;75.82
55801;BME280;41730;51.960;20.158;2023-02-13T03:39:26;101920.55;;;6.48;75.32
55801;BME280;41730;51.960;20.158;2023-02-13T03:42:05;101921.53;;;6.31;75.54
55801;BME280;41730;51.960;20.158;2023-02-13T03:44:41;101921.56;;;6.26;75.86
55801;BME280;41730;51.960;20.158;2023-02-13T03:47:15;101918.83;;;6.05;76.44
55801;BME280;41730;51.960;20.158;2023-02-13T03:49:48;101914.40;;;5.98;76.84
55801;BME280;41730;51.960;20.158;2023-02-13T03:52:42;101918.38;;;5.94;76.97
55801;BME280;41730;51.960;20.158;2023-02-13T03:55:18;101917.29;;;6.04;76.90
55801;BME280;41730;51.960;20.158;2023-02-13T03:58:10;101915.39;;;6.14;76.41
55801;BME280;41730;51.960;20.158;2023-02-13T04:01:03;101913.27;;;6.05;76.56
55801;BME280;41730;51.960;20.158;2023-02-13T04:03:39;101912.97;;;6.08;76.63
55801;BME280;41730;51.960;20.158;2023-02-13T04:06:13;101911.46;;;6.11;76.33
55801;BME280;41730;51.960;20.158;2023-02-13T04:08:44;101906.65;;;6.05;76.67
55801;BME280;41730;51.960;20.158;2023-02-13T04:11:20;101908.18;;;6.20;76.08
55801;BME280;41730;51.960;20.158;2023-02-13T04:13:57;101910.79;;;6.06;76.45
55801;BME280;41730;51.960;20.158;2023-02-13T04:16:32;101910.39;;;5.92;76.95
55801;BME280;41730;51.960;20.158;2023-02-13T04:19:06;101912.35;;;6.02;76.78
55801;BME280;41730;51.960;20.158;2023-02-13T04:21:39;101914.10;;;6.11;76.58
55801;BME280;41730;51.960;20.158;2023-02-13T04:24:11;101913.66;;;6.18;76.33
55801;BME280;41730;51.960;20.158;2023-02-13T04:26:45;101910.39;;;6.03;76.47
55801;BME280;41730;51.960;20.158;2023-02-13T04:29:22;101910.81;;;5.96;76.92
55801;BME280;41730;51.960;20.158;2023-02-13T04:31:56;101914.27;;;5.91;77.12
55801;BME280;41730;51.960;20.158;2023-02-13T04:34:28;101916.51;;;5.91;77.16
55801;BME280;41730;51.960;20.158;2023-02-13T04:37:00;101919.70;;;5.96;77.09
55801;BME280;41730;51.960;20.158;2023-02-13T04:39:31;101915.20;;;6.09;76.80
55801;BME280;41730;51.960;20.158;2023-02-13T04:42:06;101918.21;;;6.08;76.67
55801;BME280;41730;51.960;20.158;2023-02-13T04:44:37;101920.68;;;5.98;76.94
55801;BME280;41730;51.960;20.158;2023-02-13T04:47:09;101919.67;;;6.02;76.97
55801;BME280;41730;51.960;20.158;2023-02-13T04:49:40;101917.33;;;6.04;76.75
55801;BME280;41730;51.960;20.158;2023-02-13T04:52:12;101921.75;;;6.16;76.45
55801;BME280;41730;51.960;20.158;2023-02-13T04:54:44;101924.74;;;6.20;76.37
55801;BME280;41730;51.960;20.158;2023-02-13T04:57:17;101925.84;;;6.19;76.06
55801;BME280;41730;51.960;20.158;2023-02-13T04:59:48;101926.55;;;6.04;76.57
55801;BME280;41730;51.960;20.158;2023-02-13T05:02:20;101930.27;;;5.91;77.09
55801;BME280;41730;51.960;20.158;2023-02-13T05:04:51;101931.74;;;5.94;77.13
55801;BME280;41730;51.960;20.158;2023-02-13T05:07:23;101930.52;;;6.00;76.82
55801;BME280;41730;51.960;20.158;2023-02-13T05:09:55;101930.18;;;6.04;76.68
55801;BME280;41730;51.960;20.158;2023-02-13T05:12:26;101936.45;;;5.94;77.03
55801;BME280;41730;51.960;20.158;2023-02-13T05:14:58;101936.44;;;5.95;77.03
55801;BME280;41730;51.960;20.158;2023-02-13T05:17:30;101935.45;;;6.08;76.68
55801;BME280;41730;51.960;20.158;2023-02-13T05:20:02;101930.39;;;6.23;76.15
55801;BME280;41730;51.960;20.158;2023-02-13T05:22:33;101925.41;;;6.11;76.32
55801;BME280;41730;51.960;20.158;2023-02-13T05:25:22;101934.23;;;5.93;76.90
55801;BME280;41730;51.960;20.158;2023-02-13T05:27:54;101937.40;;;5.87;77.06
55801;BME280;41730;51.960;20.158;2023-02-13T05:30:26;101936.33;;;5.83;77.34
55801;BME280;41730;51.960;20.158;2023-02-13T05:32:58;101931.20;;;5.80;77.26
55801;BME280;41730;51.960;20.158;2023-02-13T05:35:29;101930.48;;;5.90;76.94
55801;BME280;41730;51.960;20.158;2023-02-13T05:38:01;101940.96;;;5.95;76.70
55801;BME280;41730;51.960;20.158;2023-02-13T05:40:32;101939.31;;;6.02;76.34
55801;BME280;41730;51.960;20.158;2023-02-13T05:43:04;101945.18;;;6.08;76.18
55801;BME280;41730;51.960;20.158;2023-02-13T05:45:36;101942.32;;;6.15;75.92
55801;BME280;41730;51.960;20.158;2023-02-13T05:48:07;101943.43;;;6.08;76.02
55801;BME280;41730;51.960;20.158;2023-02-13T05:50:39;101938.75;;;6.13;76.05
55801;BME280;41730;51.960;20.158;2023-02-13T05:53:11;101941.30;;;6.15;75.86
55801;BME280;41730;51.960;20.158;2023-02-13T05:55:43;101941.90;;;6.12;75.89
55801;BME280;41730;51.960;20.158;2023-02-13T05:58:14;101941.81;;;6.05;76.11
55801;BME280;41730;51.960;20.158;2023-02-13T06:00:46;101941.02;;;6.08;76.19
55801;BME280;41730;51.960;20.158;2023-02-13T06:03:20;101940.41;;;6.10;76.08
55801;BME280;41730;51.960;20.158;2023-02-13T06:05:51;101946.21;;;6.24;75.79
55801;BME280;41730;51.960;20.158;2023-02-13T06:08:24;101944.13;;;6.18;76.01
55801;BME280;41730;51.960;20.158;2023-02-13T06:10:56;101949.16;;;6.18;75.81
55801;BME280;41730;51.960;20.158;2023-02-13T06:13:28;101956.49;;;6.14;76.17
55801;BME280;41730;51.960;20.158;2023-02-13T06:16:00;101951.39;;;6.15;76.24
55801;BME280;41730;51.960;20.158;2023-02-13T06:18:32;101953.63;;;6.25;75.85
55801;BME280;41730;51.960;20.158;2023-02-13T06:21:04;101946.09;;;6.17;75.94
55801;BME280;41730;51.960;20.158;2023-02-13T06:23:37;101946.26;;;6.12;76.05
55801;BME280;41730;51.960;20.158;2023-02-13T06:26:09;101942.85;;;6.05;76.29
55801;BME280;41730;51.960;20.158;2023-02-13T06:28:41;101939.11;;;5.92;76.89
55801;BME280;41730;51.960;20.158;2023-02-13T06:31:13;101941.55;;;5.93;76.96
55801;BME280;41730;51.960;20.158;2023-02-13T06:33:44;101947.32;;;5.92;77.03
55801;BME280;41730;51.960;20.158;2023-02-13T06:36:16;101948.56;;;5.86;77.07
55801;BME280;41730;51.960;20.158;2023-02-13T06:38:48;101949.95;;;5.81;77.43
55801;BME280;41730;51.960;20.158;2023-02-13T06:41:20;101949.19;;;5.83;77.36
55801;BME280;41730;51.960;20.158;2023-02-13T06:43:51;101946.61;;;5.82;77.34
55801;BME280;41730;51.960;20.158;2023-02-13T06:46:23;101943.58;;;5.84;77.35
55801;BME280;41730;51.960;20.158;2023-02-13T06:48:55;101944.45;;;5.89;77.30
55801;BME280;41730;51.960;20.158;2023-02-13T06:51:26;101946.20;;;5.89;77.27
55801;BME280;41730;51.960;20.158;2023-02-13T06:53:58;101949.48;;;5.89;77.23
55801;BME280;41730;51.960;20.158;2023-02-13T06:56:30;101950.31;;;5.86;77.40
55801;BME280;41730;51.960;20.158;2023-02-13T06:59:01;101949.22;;;5.87;77.38
55801;BME280;41730;51.960;20.158;2023-02-13T07:01:34;101946.27;;;5.87;77.41
55801;BME280;41730;51.960;20.158;2023-02-13T07:04:06;101940.06;;;5.90;77.49
55801;BME280;41730;51.960;20.158;2023-02-13T07:06:38;101941.36;;;5.93;77.48
55801;BME280;41730;51.960;20.158;2023-02-13T07:09:10;101945.84;;;5.94;77.43
55801;BME280;41730;51.960;20.158;2023-02-13T07:11:43;101949.64;;;5.96;77.52
55801;BME280;41730;51.960;20.158;2023-02-13T07:14:14;101953.44;;;6.02;77.50
55801;BME280;41730;51.960;20.158;2023-02-13T07:16:46;101956.79;;;6.10;77.27
55801;BME280;41730;51.960;20.158;2023-02-13T07:19:17;101954.77;;;6.13;77.11
55801;BME280;41730;51.960;20.158;2023-02-13T07:21:49;101958.46;;;6.16;77.10
55801;BME280;41730;51.960;20.158;2023-02-13T07:24:20;101957.24;;;6.17;77.39
55801;BME280;41730;51.960;20.158;2023-02-13T07:26:52;101957.17;;;6.24;77.55
55801;BME280;41730;51.960;20.158;2023-02-13T07:29:23;101963.30;;;6.37;77.45
55801;BME280;41730;51.960;20.158;2023-02-13T07:31:55;101961.86;;;6.42;77.26
55801;BME280;41730;51.960;20.158;2023-02-13T07:34:27;101967.40;;;6.48;77.05
55801;BME280;41730;51.960;20.158;2023-02-13T07:36:59;101962.21;;;6.43;77.28
55801;BME280;41730;51.960;20.158;2023-02-13T07:39:31;101955.29;;;6.51;77.19
55801;BME280;41730;51.960;20.158;2023-02-13T07:42:02;101954.77;;;6.55;77.20
55801;BME280;41730;51.960;20.158;2023-02-13T07:44:34;101953.52;;;6.65;76.95
55801;BME280;41730;51.960;20.158;2023-02-13T07:47:05;101961.46;;;6.77;76.63
55801;BME280;41730;51.960;20.158;2023-02-13T07:49:37;101960.97;;;6.93;76.41
55801;BME280;41730;51.960;20.158;2023-02-13T07:52:09;101956.10;;;7.11;75.69
55801;BME280;41730;51.960;20.158;2023-02-13T07:54:40;101958.27;;;7.09;75.71
55801;BME280;41730;51.960;20.158;2023-02-13T07:57:17;101956.83;;;7.10;75.66
55801;BME280;41730;51.960;20.158;2023-02-13T07:59:48;101949.52;;;7.22;75.20
55801;BME280;41730;51.960;20.158;2023-02-13T08:02:20;101952.98;;;7.27;74.80
55801;BME280;41730;51.960;20.158;2023-02-13T08:04:51;101946.67;;;7.19;74.96
55801;BME280;41730;51.960;20.158;2023-02-13T08:07:23;101946.58;;;7.00;75.68
55801;BME280;41730;51.960;20.158;2023-02-13T08:09:54;101949.63;;;6.94;75.75
55801;BME280;41730;51.960;20.158;2023-02-13T08:12:43;101953.01;;;6.92;75.93
55801;BME280;41730;51.960;20.158;2023-02-13T08:15:16;101952.13;;;6.88;75.78
55801;BME280;41730;51.960;20.158;2023-02-13T08:17:47;101952.17;;;6.95;75.69
55801;BME280;41730;51.960;20.158;2023-02-13T08:20:19;101952.92;;;6.94;75.67
55801;BME280;41730;51.960;20.158;2023-02-13T08:22:51;101955.40;;;6.89;75.78
55801;BME280;41730;51.960;20.158;2023-02-13T08:25:23;101955.65;;;6.78;76.47
55801;BME280;41730;51.960;20.158;2023-02-13T08:27:54;101957.54;;;6.74;76.80
55801;BME280;41730;51.960;20.158;2023-02-13T08:30:27;101956.86;;;6.74;76.99
55801;BME280;41730;51.960;20.158;2023-02-13T08:32:59;101954.44;;;6.78;76.90
55801;BME280;41730;51.960;20.158;2023-02-13T08:35:30;101955.04;;;6.80;76.95
55801;BME280;41730;51.960;20.158;2023-02-13T08:38:04;101958.72;;;6.84;77.06
55801;BME280;41730;51.960;20.158;2023-02-13T08:40:36;101954.27;;;6.86;77.26
55801;BME280;41730;51.960;20.158;2023-02-13T08:43:07;101948.41;;;6.89;77.09
55801;BME280;41730;51.960;20.158;2023-02-13T08:45:39;101944.08;;;6.93;77.34
55801;BME280;41730;51.960;20.158;2023-02-13T08:48:10;101941.04;;;6.95;77.28
55801;BME280;41730;51.960;20.158;2023-02-13T08:50:42;101941.85;;;6.91;77.58
55801;BME280;41730;51.960;20.158;2023-02-13T08:53:14;101935.08;;;6.91;77.69
55801;BME280;41730;51.960;20.158;2023-02-13T08:55:52;101932.05;;;6.97;77.77
55801;BME280;41730;51.960;20.158;2023-02-13T08:58:24;101924.16;;;7.02;77.70
55801;BME280;41730;51.960;20.158;2023-02-13T09:00:56;101919.74;;;7.13;77.48
55801;BME280;41730;51.960;20.158;2023-02-13T09:03:28;101921.16;;;7.16;77.43
55801;BME280;41730;51.960;20.158;2023-02-13T09:06:01;101921.38;;;7.15;77.56
55801;BME280;41730;51.960;20.158;2023-02-13T09:08:33;101929.20;;;7.12;77.68
55801;BME280;41730;51.960;20.158;2023-02-13T09:11:08;101932.11;;;7.13;77.78
55801;BME280;41730;51.960;20.158;2023-02-13T09:13:40;101928.09;;;7.17;77.59
55801;BME280;41730;51.960;20.158;2023-02-13T09:16:12;101922.05;;;7.20;77.66
55801;BME280;41730;51.960;20.158;2023-02-13T09:18:44;101913.14;;;7.21;77.79
55801;BME280;41730;51.960;20.158;2023-02-13T09:21:18;101907.98;;;7.31;77.54
55801;BME280;41730;51.960;20.158;2023-02-13T09:23:50;101912.83;;;7.36;77.40
55801;BME280;41730;51.960;20.158;2023-02-13T09:26:21;101913.10;;;7.34;77.31
55801;BME280;41730;51.960;20.158;2023-02-13T09:28:53;101910.26;;;7.39;77.03
55801;BME280;41730;51.960;20.158;2023-02-13T09:31:25;101911.27;;;7.40;77.70
55801;BME280;41730;51.960;20.158;2023-02-13T09:33:58;101916.37;;;7.39;78.26
55801;BME280;41730;51.960;20.158;2023-02-13T09:36:30;101913.59;;;7.47;77.98
55801;BME280;41730;51.960;20.158;2023-02-13T09:39:02;101912.11;;;7.57;77.70
55801;BME280;41730;51.960;20.158;2023-02-13T09:41:36;101912.37;;;7.56;77.56
55801;BME280;41730;51.960;20.158;2023-02-13T09:44:13;101908.95;;;7.66;77.24
55801;BME280;41730;51.960;20.158;2023-02-13T09:47:02;101907.34;;;7.83;76.27
55801;BME280;41730;51.960;20.158;2023-02-13T09:49:39;101910.14;;;7.75;76.42
55801;BME280;41730;51.960;20.158;2023-02-13T09:52:13;101912.23;;;7.87;76.24
55801;BME280;41730;51.960;20.158;2023-02-13T09:54:45;101911.61;;;7.77;76.00
55801;BME280;41730;51.960;20.158;2023-02-13T09:57:22;101913.89;;;7.73;75.74
55801;BME280;41730;51.960;20.158;2023-02-13T10:00:03;101912.95;;;7.70;75.86
55801;BME280;41730;51.960;20.158;2023-02-13T10:02:56;101913.06;;;7.64;75.73
55801;BME280;41730;51.960;20.158;2023-02-13T10:05:45;101917.69;;;7.81;75.17
55801;BME280;41730;51.960;20.158;2023-02-13T10:08:29;101920.54;;;7.88;74.83
55801;BME280;41730;51.960;20.158;2023-02-13T10:11:12;101919.26;;;7.78;74.91
55801;BME280;41730;51.960;20.158;2023-02-13T10:13:58;101915.45;;;7.73;75.21
55801;BME280;41730;51.960;20.158;2023-02-13T10:16:36;101911.77;;;7.73;74.99
55801;BME280;41730;51.960;20.158;2023-02-13T10:19:18;101914.67;;;7.79;75.22
55801;BME280;41730;51.960;20.158;2023-02-13T10:21:59;101910.74;;;7.88;74.54
55801;BME280;41730;51.960;20.158;2023-02-13T10:24:38;101906.88;;;7.81;74.93
55801;BME280;41730;51.960;20.158;2023-02-13T10:27:20;101916.92;;;7.83;75.04
55801;BME280;41730;51.960;20.158;2023-02-13T10:29:56;101916.60;;;7.79;75.02
55801;BME280;41730;51.960;20.158;2023-02-13T10:32:43;101912.70;;;7.80;75.31
55801;BME280;41730;51.960;20.158;2023-02-13T10:35:25;101916.74;;;7.87;74.72
55801;BME280;41730;51.960;20.158;2023-02-13T10:37:59;101916.27;;;7.86;74.77
55801;BME280;41730;51.960;20.158;2023-02-13T10:40:35;101916.27;;;7.90;74.25
55801;BME280;41730;51.960;20.158;2023-02-13T10:43:10;101915.11;;;7.81;74.54
55801;BME280;41730;51.960;20.158;2023-02-13T10:45:58;101914.59;;;7.81;74.43
55801;BME280;41730;51.960;20.158;2023-02-13T10:48:46;101917.98;;;7.79;74.15
55801;BME280;41730;51.960;20.158;2023-02-13T10:51:27;101915.42;;;7.82;74.18
55801;BME280;41730;51.960;20.158;2023-02-13T10:54:19;101907.42;;;7.77;74.37
55801;BME280;41730;51.960;20.158;2023-02-13T10:56:58;101906.04;;;7.77;74.40
55801;BME280;41730;51.960;20.158;2023-02-13T11:02:26;101897.73;;;7.75;74.64
55801;BME280;41730;51.960;20.158;2023-02-13T11:05:00;101899.48;;;7.67;74.91
55801;BME280;41730;51.960;20.158;2023-02-13T11:07:32;101894.20;;;7.68;74.68
55801;BME280;41730;51.960;20.158;2023-02-13T11:10:17;101889.80;;;7.69;74.76
55801;BME280;41730;51.960;20.158;2023-02-13T11:12:50;101889.98;;;7.60;74.68
55801;BME280;41730;51.960;20.158;2023-02-13T11:15:25;101893.33;;;7.52;75.19
55801;BME280;41730;51.960;20.158;2023-02-13T11:17:58;101893.74;;;7.54;75.15
55801;BME280;41730;51.960;20.158;2023-02-13T11:20:34;101893.27;;;7.54;74.92
55801;BME280;41730;51.960;20.158;2023-02-13T11:23:36;101888.85;;;7.46;74.91
55801;BME280;41730;51.960;20.158;2023-02-13T11:26:10;101888.32;;;7.46;74.94
55801;BME280;41730;51.960;20.158;2023-02-13T11:28:49;101885.05;;;7.53;74.66
55801;BME280;41730;51.960;20.158;2023-02-13T11:31:26;101881.23;;;7.61;74.43
55801;BME280;41730;51.960;20.158;2023-02-13T11:34:16;101883.16;;;7.61;74.40
55801;BME280;41730;51.960;20.158;2023-02-13T11:36:51;101884.04;;;7.61;74.61
55801;BME280;41730;51.960;20.158;2023-02-13T11:39:26;101883.46;;;7.70;74.74
55801;BME280;41730;51.960;20.158;2023-02-13T11:41:58;101886.09;;;7.89;74.14
55801;BME280;41730;51.960;20.158;2023-02-13T11:44:31;101884.19;;;7.89;73.89
55801;BME280;41730;51.960;20.158;2023-02-13T11:47:03;101879.58;;;7.87;74.18
55801;BME280;41730;51.960;20.158;2023-02-13T11:49:36;101881.83;;;7.87;74.12
55801;BME280;41730;51.960;20.158;2023-02-13T11:52:22;101874.48;;;7.87;74.30
55801;BME280;41730;51.960;20.158;2023-02-13T11:54:59;101871.35;;;7.95;74.20
55801;BME280;41730;51.960;20.158;2023-02-13T11:57:35;101865.84;;;8.01;73.61
55801;BME280;41730;51.960;20.158;2023-02-13T12:03:28;101854.91;;;8.15;72.85
55801;BME280;41730;51.960;20.158;2023-02-13T12:06:05;101856.19;;;8.21;72.60
55801;BME280;41730;51.960;20.158;2023-02-13T12:08:43;101854.29;;;8.28;72.75
55801;BME280;41730;51.960;20.158;2023-02-13T12:11:27;101857.92;;;8.32;72.51
55801;BME280;41730;51.960;20.158;2023-02-13T12:14:03;101850.73;;;8.41;72.53
55801;BME280;41730;51.960;20.158;2023-02-13T12:16:39;101844.41;;;8.42;71.86
55801;BME280;41730;51.960;20.158;2023-02-13T12:19:18;101844.61;;;8.29;72.04
55801;BME280;41730;51.960;20.158;2023-02-13T12:22:03;101852.95;;;8.27;72.10
55801;BME280;41730;51.960;20.158;2023-02-13T12:24:57;101853.63;;;8.23;71.99
55801;BME280;41730;51.960;20.158;2023-02-13T12:27:33;101842.64;;;8.38;72.05
55801;BME280;41730;51.960;20.158;2023-02-13T12:33:18;101834.11;;;8.52;70.77
55801;BME280;41730;51.960;20.158;2023-02-13T12:36:04;101830.86;;;8.58;70.66
55801;BME280;41730;51.960;20.158;2023-02-13T12:38:48;101826.54;;;8.65;70.67
55801;BME280;41730;51.960;20.158;2023-02-13T12:41:30;101833.67;;;8.68;70.56
55801;BME280;41730;51.960;20.158;2023-02-13T12:44:17;101819.55;;;8.75;70.72
55801;BME280;41730;51.960;20.158;2023-02-13T12:47:02;101820.20;;;8.83;70.33
55801;BME280;41730;51.960;20.158;2023-02-13T12:49:48;101817.87;;;8.81;69.85
55801;BME280;41730;51.960;20.158;2023-02-13T12:52:35;101821.27;;;8.83;70.09
55801;BME280;41730;51.960;20.158;2023-02-13T12:55:32;101816.05;;;8.86;69.24
55801;BME280;41730;51.960;20.158;2023-02-13T12:58:20;101809.20;;;8.79;69.09
55801;BME280;41730;51.960;20.158;2023-02-13T13:01:03;101815.73;;;8.67;69.02
55801;BME280;41730;51.960;20.158;2023-02-13T13:03:48;101816.82;;;8.56;69.46
55801;BME280;41730;51.960;20.158;2023-02-13T13:06:41;101815.02;;;8.46;69.75
55801;BME280;41730;51.960;20.158;2023-02-13T13:09:34;101813.41;;;8.46;70.06
55801;BME280;41730;51.960;20.158;2023-02-13T13:12:29;101802.93;;;8.61;69.78
55801;BME280;41730;51.960;20.158;2023-02-13T13:15:10;101788.74;;;8.61;69.81
55801;BME280;41730;51.960;20.158;2023-02-13T13:18:01;101787.17;;;8.65;69.76
55801;BME280;41730;51.960;20.158;2023-02-13T13:20:53;101799.39;;;8.65;69.43
55801;BME280;41730;51.960;20.158;2023-02-13T13:23:32;101801.82;;;8.73;68.93
55801;BME280;41730;51.960;20.158;2023-02-13T13:26:16;101797.77;;;8.70;69.19
55801;BME280;41730;51.960;20.158;2023-02-13T13:28:54;101783.41;;;8.66;69.07
55801;BME280;41730;51.960;20.158;2023-02-13T13:31:27;101769.41;;;8.56;69.26
55801;BME280;41730;51.960;20.158;2023-02-13T13:34:11;101768.80;;;8.40;69.33
55801;BME280;41730;51.960;20.158;2023-02-13T13:36:47;101768.98;;;8.32;69.79
55801;BME280;41730;51.960;20.158;2023-02-13T13:39:32;101771.88;;;8.26;69.63
55801;BME280;41730;51.960;20.158;2023-02-13T13:42:13;101772.39;;;8.23;69.88
55801;BME280;41730;51.960;20.158;2023-02-13T13:45:16;101767.39;;;8.25;69.69
55801;BME280;41730;51.960;20.158;2023-02-13T13:48:26;101759.70;;;8.32;69.40
55801;BME280;41730;51.960;20.158;2023-02-13T13:51:05;101762.85;;;8.32;69.36
55801;BME280;41730;51.960;20.158;2023-02-13T13:57:07;101767.30;;;8.20;69.83